createdAt,value
2024-01-24T00:00:12.140Z,101808.53
2024-01-24T00:03:14.792Z,101810.19
2024-01-24T00:06:17.469Z,101811.84
2024-01-24T00:09:20.062Z,101804.16
2024-01-24T00:12:22.760Z,101796.53
2024-01-24T00:15:25.912Z,101784.69
2024-01-24T00:18:29.126Z,101794.06
2024-01-24T00:21:31.888Z,101810.31
2024-01-24T00:24:34.574Z,101809.47
2024-01-24T00:27:37.260Z,101820.56
2024-01-24T00:30:40.064Z,101833.38
2024-01-24T00:33:42.753Z,101848.72
2024-01-24T00:36:45.417Z,101835.97
2024-01-24T00:39:49.052Z,101833.59
2024-01-24T00:42:51.757Z,101837.88
2024-01-24T00:45:55.139Z,101823.53
2024-01-24T00:48:57.796Z,101829.59
2024-01-24T00:52:00.881Z,101834.66
2024-01-24T00:55:04.012Z,101832.88
2024-01-24T00:58:06.584Z,101828.59
2024-01-24T01:01:10.245Z,101831.13
2024-01-24T01:04:13.090Z,101840.63
2024-01-24T01:07:16.151Z,101831.28
2024-01-24T01:10:18.967Z,101822.84
2024-01-24T01:13:21.541Z,101817.84
2024-01-24T01:16:24.194Z,101815.31
2024-01-24T01:19:26.840Z,101807.66
2024-01-24T01:22:29.522Z,101794.84
2024-01-24T01:25:32.195Z,101799.94
2024-01-24T01:28:34.809Z,101795.69
2024-01-24T01:31:37.525Z,101789.78
2024-01-24T01:34:40.478Z,101804.22
2024-01-24T01:37:43.688Z,101796.56
2024-01-24T01:40:46.189Z,101788.88
2024-01-24T01:43:48.705Z,101793.19
2024-01-24T01:46:52.729Z,101778.72
2024-01-24T01:49:55.656Z,101789.78
2024-01-24T01:52:59.875Z,101783.78
2024-01-24T01:56:02.530Z,101781.22
2024-01-24T01:59:06.691Z,101791.47
2024-01-24T02:02:11.405Z,101792.31
2024-01-24T02:05:16.187Z,101778.72
2024-01-24T02:08:18.782Z,101782.91
2024-01-24T02:11:22.274Z,101772.75
2024-01-24T02:14:25.588Z,101769.41
2024-01-24T02:17:28.084Z,101759.06
2024-01-24T02:20:33.042Z,101762.53
2024-01-24T02:23:36.864Z,101761.66
2024-01-24T02:26:40.246Z,101774.47
2024-01-24T02:29:43.882Z,101754.81
2024-01-24T02:32:47.020Z,101755.78
2024-01-24T02:35:50.190Z,101762.66
2024-01-24T02:38:54.894Z,101743.94
2024-01-24T02:41:58.927Z,101759.13
2024-01-24T02:45:01.436Z,101751.47
2024-01-24T02:48:04.471Z,101754.88
2024-01-24T02:51:07.067Z,101754.06
2024-01-24T02:54:09.611Z,101748.88
2024-01-24T02:57:12.216Z,101738.66
2024-01-24T03:00:15.227Z,101746.22
2024-01-24T03:03:17.851Z,101729.19
2024-01-24T03:06:21.511Z,101713.75
2024-01-24T03:09:24.103Z,101709.59
2024-01-24T03:12:26.636Z,101713.94
2024-01-24T03:15:29.142Z,101694.38
2024-01-24T03:18:31.747Z,101702.84
2024-01-24T03:21:34.377Z,101705.44
2024-01-24T03:24:37.219Z,101695.31
2024-01-24T03:27:40.039Z,101686.81
2024-01-24T03:30:42.941Z,101673.97
2024-01-24T03:33:45.678Z,101687.50
2024-01-24T03:36:48.843Z,101685.72
2024-01-24T03:39:51.466Z,101682.47
2024-01-24T03:42:54.372Z,101680.88
2024-01-24T03:45:57.143Z,101682.53
2024-01-24T03:48:59.824Z,101669.63
2024-01-24T03:52:04.301Z,101678.22
2024-01-24T03:55:07.215Z,101668.97
2024-01-24T03:58:09.680Z,101679.06
2024-01-24T04:01:12.344Z,101674.00
2024-01-24T04:04:15.069Z,101651.03
2024-01-24T04:07:17.813Z,101650.94
2024-01-24T04:10:21.858Z,101645.06
2024-01-24T04:13:25.552Z,101633.06
2024-01-24T04:16:28.407Z,101617.69
2024-01-24T04:19:31.392Z,101613.34
2024-01-24T04:22:34.163Z,101610.94
2024-01-24T04:25:36.714Z,101614.16
2024-01-24T04:28:39.194Z,101614.97
2024-01-24T04:31:43.568Z,101600.63
2024-01-24T04:34:46.301Z,101603.28
2024-01-24T04:37:48.943Z,101612.63
2024-01-24T04:40:51.510Z,101635.63
2024-01-24T04:43:54.058Z,101625.41
2024-01-24T04:46:56.663Z,101632.16
2024-01-24T04:49:59.423Z,101637.22
2024-01-24T04:53:02.108Z,101642.97
2024-01-24T04:56:04.895Z,101646.19
2024-01-24T04:59:07.391Z,101640.50
2024-01-24T05:02:10.186Z,101643.19
2024-01-24T05:05:12.962Z,101662.72
2024-01-24T05:08:18.043Z,101667.06
2024-01-24T05:11:20.583Z,101669.53
2024-01-24T05:14:23.061Z,101671.25
2024-01-24T05:17:25.547Z,101655.22
2024-01-24T05:20:27.987Z,101634.84
2024-01-24T05:23:33.377Z,101622.19
2024-01-24T05:26:37.580Z,101617.09
2024-01-24T05:29:40.624Z,101634.06
2024-01-24T05:32:43.235Z,101626.13
2024-01-24T05:35:47.011Z,101624.56
2024-01-24T05:38:49.470Z,101624.53
2024-01-24T05:41:52.090Z,101626.81
2024-01-24T05:44:54.619Z,101604.56
2024-01-24T05:47:57.425Z,101585.06
2024-01-24T05:51:00.379Z,101577.25
2024-01-24T05:54:02.887Z,101585.28
2024-01-24T05:57:05.683Z,101569.91
2024-01-24T06:00:11.137Z,101565.31
2024-01-24T06:03:15.398Z,101560.78
2024-01-24T06:06:20.377Z,101567.59
2024-01-24T06:09:23.429Z,101560.81
2024-01-24T06:12:25.967Z,101564.09
2024-01-24T06:15:32.761Z,101587.28
2024-01-24T06:18:36.049Z,101585.75
2024-01-24T06:21:38.834Z,101598.59
2024-01-24T06:24:41.427Z,101594.56
2024-01-24T06:27:46.420Z,101597.56
2024-01-24T06:30:49.354Z,101608.63
2024-01-24T06:33:52.640Z,101598.47
2024-01-24T06:36:55.562Z,101597.81
2024-01-24T06:39:58.881Z,101594.38
2024-01-24T06:43:01.770Z,101586.72
2024-01-24T06:46:06.265Z,101594.38
2024-01-24T06:49:11.134Z,101597.78
2024-01-24T06:52:14.103Z,101606.88
2024-01-24T06:55:18.682Z,101605.25
2024-01-24T06:58:21.639Z,101614.50
2024-01-24T07:01:24.284Z,101603.63
2024-01-24T07:04:27.335Z,101606.25
2024-01-24T07:07:31.854Z,101607.09
2024-01-24T07:10:35.977Z,101627.31
2024-01-24T07:13:39.365Z,101624.44
2024-01-24T07:16:45.746Z,101611.06
2024-01-24T07:19:49.115Z,101602.59
2024-01-24T07:22:52.146Z,101612.72
2024-01-24T07:25:56.473Z,101609.16
2024-01-24T07:29:00.250Z,101617.66
2024-01-24T07:32:05.402Z,101607.66
2024-01-24T07:35:12.880Z,101593.31
2024-01-24T07:38:16.207Z,101608.31
2024-01-24T07:41:19.094Z,101587.13
2024-01-24T07:44:21.885Z,101572.75
2024-01-24T07:47:27.453Z,101568.50
2024-01-24T07:50:34.839Z,101576.25
2024-01-24T07:53:39.813Z,101554.25
2024-01-24T07:56:47.059Z,101549.31
2024-01-24T07:59:49.860Z,101533.94
2024-01-24T08:02:53.329Z,101513.66
2024-01-24T08:05:56.178Z,101510.09
2024-01-24T08:08:58.929Z,101487.91
2024-01-24T08:12:02.354Z,101499.63
2024-01-24T08:15:08.157Z,101495.47
2024-01-24T08:18:12.384Z,101497.34
2024-01-24T08:21:16.428Z,101459.03
2024-01-24T08:24:19.484Z,101465.66
2024-01-24T08:27:22.347Z,101461.38
2024-01-24T08:30:25.134Z,101472.59
2024-01-24T08:33:28.403Z,101454.81
2024-01-24T08:36:32.934Z,101453.34
2024-01-24T08:39:35.961Z,101456.69
2024-01-24T08:42:39.230Z,101465.25
2024-01-24T08:45:41.941Z,101463.69
2024-01-24T08:48:45.135Z,101444.03
2024-01-24T08:51:47.878Z,101435.69
2024-01-24T08:54:52.432Z,101428.16
2024-01-24T08:57:55.803Z,101411.28
2024-01-24T09:00:59.086Z,101422.25
2024-01-24T09:04:03.546Z,101427.41
2024-01-24T09:07:08.084Z,101429.09
2024-01-24T09:10:11.172Z,101441.84
2024-01-24T09:13:14.380Z,101436.81
2024-01-24T09:16:17.403Z,101429.25
2024-01-24T09:19:22.243Z,101425.84
2024-01-24T09:22:25.256Z,101423.25
2024-01-24T09:25:29.081Z,101419.88
2024-01-24T09:28:32.191Z,101403.72
2024-01-24T09:31:35.091Z,101375.72
2024-01-24T09:34:39.439Z,101382.41
2024-01-24T09:37:42.599Z,101387.56
2024-01-24T09:40:45.468Z,101357.75
2024-01-24T09:43:49.221Z,101370.53
2024-01-24T09:46:55.159Z,101334.97
2024-01-24T09:50:00.633Z,101318.84
2024-01-24T09:53:08.900Z,101324.03
2024-01-24T09:56:13.160Z,101309.56
2024-01-24T09:59:15.890Z,101288.38
2024-01-24T10:02:19.054Z,101278.19
2024-01-24T10:05:30.386Z,101301.13
2024-01-24T10:08:33.793Z,101334.22
2024-01-24T10:11:37.392Z,101328.25
2024-01-24T10:14:42.417Z,101329.09
2024-01-24T10:17:45.726Z,101310.31
2024-01-24T10:20:53.118Z,101306.19
2024-01-24T10:23:59.212Z,101283.28
2024-01-24T10:27:03.511Z,101263.75
2024-01-24T10:30:14.268Z,101264.59
2024-01-24T10:33:19.663Z,101260.34
2024-01-24T10:36:27.724Z,101262.06
2024-01-24T10:39:36.093Z,101264.63
2024-01-24T10:42:41.875Z,101262.03
2024-01-24T10:45:45.954Z,101259.47
2024-01-24T10:48:49.781Z,101213.50
2024-01-24T10:51:53.897Z,101182.22
2024-01-24T10:55:05.345Z,101208.53
2024-01-24T10:58:12.966Z,101226.34
2024-01-24T11:01:16.128Z,101232.34
2024-01-24T11:04:24.494Z,101215.34
2024-01-24T11:07:33.938Z,101178.03
2024-01-24T11:10:41.896Z,101162.69
2024-01-24T11:13:46.049Z,101146.50
2024-01-24T11:16:48.787Z,101147.41
2024-01-24T11:19:52.175Z,101126.97
2024-01-24T11:22:55.144Z,101144.78
2024-01-24T11:25:58.212Z,101140.44
2024-01-24T11:29:16.765Z,101141.22
2024-01-24T11:33:01.656Z,101138.75
2024-01-24T11:36:12.809Z,101122.59
2024-01-24T11:39:49.185Z,101132.84
2024-01-24T11:42:58.340Z,101130.28
2024-01-24T11:46:06.164Z,101104.78
2024-01-24T11:49:09.748Z,101060.59
2024-01-24T11:52:12.951Z,101050.44
2024-01-24T11:55:18.502Z,101048.53
2024-01-24T11:58:28.407Z,101048.38
2024-01-24T12:01:31.313Z,101016.16
2024-01-24T12:04:34.239Z,101024.06
2024-01-24T12:07:37.940Z,101007.00
2024-01-24T12:10:41.320Z,101011.06
2024-01-24T12:13:44.757Z,101009.38
2024-01-24T12:16:48.620Z,101027.16
2024-01-24T12:19:51.527Z,101022.06
2024-01-24T12:22:56.595Z,101042.38
2024-01-24T12:26:00.560Z,101064.56
2024-01-24T12:29:06.720Z,101051.81
2024-01-24T12:32:10.325Z,101023.91
2024-01-24T12:35:16.954Z,101035.00
2024-01-24T12:38:20.086Z,101014.56
2024-01-24T12:41:24.372Z,100987.50
2024-01-24T12:44:27.585Z,101000.03
2024-01-24T12:47:30.461Z,100975.50
2024-01-24T12:50:34.400Z,100969.66
2024-01-24T12:53:37.228Z,100986.50
2024-01-24T12:56:39.912Z,100989.84
2024-01-24T12:59:43.315Z,100982.09
2024-01-24T13:02:47.068Z,100982.41
2024-01-24T13:05:51.490Z,100975.13
2024-01-24T13:08:55.492Z,100943.56
2024-01-24T13:11:58.579Z,100971.63
2024-01-24T13:15:01.525Z,100951.16
2024-01-24T13:18:07.002Z,100931.56
2024-01-24T13:21:10.769Z,100914.50
2024-01-24T13:24:13.767Z,100920.59
2024-01-24T13:27:19.481Z,100932.34
2024-01-24T13:30:22.307Z,100934.88
2024-01-24T13:33:25.418Z,100919.66
2024-01-24T13:36:28.392Z,100937.41
2024-01-24T13:39:32.057Z,100910.97
2024-01-24T13:42:34.890Z,100876.97
2024-01-24T13:45:40.923Z,100871.84
2024-01-24T13:48:45.258Z,100887.13
2024-01-24T13:51:50.153Z,100854.81
2024-01-24T13:54:53.367Z,100868.25
2024-01-24T13:58:00.528Z,100870.66
2024-01-24T14:01:04.943Z,100862.00
2024-01-24T14:04:07.803Z,100839.78
2024-01-24T14:07:10.728Z,100833.03
2024-01-24T14:10:14.005Z,100839.91
2024-01-24T14:13:17.581Z,100851.75
2024-01-24T14:16:20.513Z,100863.66
2024-01-24T14:19:25.201Z,100858.13
2024-01-24T14:22:28.982Z,100852.16
2024-01-24T14:25:32.056Z,100851.19
2024-01-24T14:28:35.229Z,100827.41
2024-01-24T14:31:39.211Z,100821.56
2024-01-24T14:34:44.040Z,100847.28
2024-01-24T14:37:47.676Z,100843.94
2024-01-24T14:40:50.858Z,100841.47
2024-01-24T14:43:54.023Z,100832.88
2024-01-24T14:46:56.764Z,100815.19
2024-01-24T14:49:59.813Z,100818.41
2024-01-24T14:53:02.742Z,100823.31
2024-01-24T14:56:06.396Z,100824.91
2024-01-24T14:59:09.485Z,100811.31
2024-01-24T15:02:12.207Z,100799.66
2024-01-24T15:05:15.053Z,100796.13
2024-01-24T15:08:18.876Z,100788.56
2024-01-24T15:11:21.624Z,100792.84
2024-01-24T15:14:25.212Z,100783.47
2024-01-24T15:17:28.875Z,100796.34
2024-01-24T15:20:31.873Z,100775.97
2024-01-24T15:23:35.252Z,100767.47
2024-01-24T15:26:39.561Z,100764.66
2024-01-24T15:29:42.430Z,100754.34
2024-01-24T15:32:46.170Z,100767.16
2024-01-24T15:35:51.209Z,100774.69
2024-01-24T15:38:56.125Z,100788.34
2024-01-24T15:42:03.683Z,100799.25
2024-01-24T15:45:06.654Z,100785.53
2024-01-24T15:48:09.394Z,100784.69
2024-01-24T15:51:12.302Z,100770.34
2024-01-24T15:54:15.174Z,100763.47
2024-01-24T15:57:17.931Z,100751.69
2024-01-24T16:00:21.253Z,100700.25
2024-01-24T16:03:27.493Z,100661.19
2024-01-24T16:06:30.702Z,100708.66
2024-01-24T16:09:34.046Z,100721.59
2024-01-24T16:12:37.188Z,100717.41
2024-01-24T16:15:39.816Z,100742.63
2024-01-24T16:18:44.553Z,100734.13
2024-01-24T16:21:49.862Z,100728.84
2024-01-24T16:24:52.637Z,100727.13
2024-01-24T16:27:56.443Z,100698.00
2024-01-24T16:30:59.437Z,100694.56
2024-01-24T16:34:02.165Z,100722.72
2024-01-24T16:37:05.143Z,100719.69
2024-01-24T16:40:09.516Z,100707.81
2024-01-24T16:43:12.400Z,100717.81
2024-01-24T16:46:15.562Z,100715.31
2024-01-24T16:49:18.230Z,100725.38
2024-01-24T16:52:24.248Z,100716.06
2024-01-24T16:55:28.196Z,100710.06
2024-01-24T16:58:31.428Z,100720.47
2024-01-24T17:01:34.442Z,100742.56
2024-01-24T17:04:38.502Z,100730.81
2024-01-24T17:07:41.310Z,100728.13
2024-01-24T17:10:44.253Z,100719.56
2024-01-24T17:13:47.414Z,100705.78
2024-01-24T17:16:50.185Z,100712.59
2024-01-24T17:19:52.935Z,100738.97
2024-01-24T17:22:57.986Z,100728.00
2024-01-24T17:26:01.058Z,100731.31
2024-01-24T17:29:03.932Z,100720.19
2024-01-24T17:32:07.364Z,100738.91
2024-01-24T17:35:10.283Z,100723.53
2024-01-24T17:38:13.266Z,100709.00
2024-01-24T17:41:16.275Z,100685.84
2024-01-24T17:44:19.953Z,100678.31
2024-01-24T17:47:24.310Z,100669.94
2024-01-24T17:50:27.570Z,100648.97
2024-01-24T17:53:30.121Z,100669.34
2024-01-24T17:56:34.324Z,100666.59
2024-01-24T17:59:37.441Z,100639.50
2024-01-24T18:02:40.447Z,100661.31
2024-01-24T18:05:43.112Z,100654.31
2024-01-24T18:08:46.550Z,100684.09
2024-01-24T18:11:49.824Z,100691.97
2024-01-24T18:14:53.467Z,100676.16
2024-01-24T18:17:56.590Z,100686.34
2024-01-24T18:20:59.587Z,100672.69
2024-01-24T18:24:04.879Z,100680.19
2024-01-24T18:27:07.651Z,100677.72
2024-01-24T18:30:10.785Z,100691.19
2024-01-24T18:33:15.979Z,100674.16
2024-01-24T18:36:20.162Z,100670.84
2024-01-24T18:39:22.989Z,100675.84
2024-01-24T18:42:25.994Z,100679.28
2024-01-24T18:45:29.021Z,100689.38
2024-01-24T18:48:31.938Z,100676.59
2024-01-24T18:51:34.697Z,100675.69
2024-01-24T18:54:37.507Z,100665.44
2024-01-24T18:57:43.928Z,100653.56
2024-01-24T19:00:47.199Z,100639.00
2024-01-24T19:03:56.165Z,100635.56
2024-01-24T19:07:01.388Z,100638.38
2024-01-24T19:10:04.741Z,100646.84
2024-01-24T19:13:07.891Z,100662.16
2024-01-24T19:16:11.690Z,100662.41
2024-01-24T19:19:16.303Z,100670.72
2024-01-24T19:22:19.180Z,100674.88
2024-01-24T19:25:22.528Z,100658.00
2024-01-24T19:28:25.090Z,100646.19
2024-01-24T19:31:27.745Z,100655.34
2024-01-24T19:34:30.393Z,100642.56
2024-01-24T19:37:34.173Z,100616.09
2024-01-24T19:40:36.805Z,100593.38
2024-01-24T19:43:40.076Z,100619.91
2024-01-24T19:46:44.585Z,100636.09
2024-01-24T19:49:47.411Z,100651.16
2024-01-24T19:52:52.300Z,100639.28
2024-01-24T19:56:00.408Z,100634.94
2024-01-24T19:59:05.006Z,100624.84
2024-01-24T20:02:07.617Z,100648.03
2024-01-24T20:05:10.193Z,100652.38
2024-01-24T20:08:12.738Z,100633.69
2024-01-24T20:11:15.880Z,100635.84
2024-01-24T20:14:18.812Z,100629.03
2024-01-24T20:17:23.841Z,100640.06
2024-01-24T20:20:26.708Z,100639.91
2024-01-24T20:23:31.202Z,100643.16
2024-01-24T20:26:35.941Z,100626.44
2024-01-24T20:29:38.826Z,100621.25
2024-01-24T20:32:45.698Z,100623.66
2024-01-24T20:36:00.436Z,100613.81
2024-01-24T20:39:03.592Z,100617.97
2024-01-24T20:42:11.079Z,100626.44
2024-01-24T20:45:16.873Z,100635.28
2024-01-24T20:48:19.870Z,100642.91
2024-01-24T20:51:22.736Z,100634.41
2024-01-24T20:54:25.433Z,100626.91
2024-01-24T20:57:30.216Z,100608.97
2024-01-24T21:00:33.587Z,100603.94
2024-01-24T21:03:36.698Z,100603.94
2024-01-24T21:06:40.745Z,100596.34
2024-01-24T21:09:44.519Z,100603.03
2024-01-24T21:12:47.318Z,100591.84
2024-01-24T21:15:50.843Z,100611.66
2024-01-24T21:18:53.480Z,100614.84
2024-01-24T21:21:56.364Z,100623.97
2024-01-24T21:24:59.169Z,100617.22
2024-01-24T21:28:02.631Z,100620.78
2024-01-24T21:31:07.441Z,100627.72
2024-01-24T21:34:10.300Z,100642.06
2024-01-24T21:37:12.887Z,100645.41
2024-01-24T21:40:16.075Z,100645.41
2024-01-24T21:43:19.064Z,100639.50
2024-01-24T21:46:21.816Z,100627.47
2024-01-24T21:49:24.463Z,100627.56
2024-01-24T21:52:27.021Z,100628.41
2024-01-24T21:55:29.730Z,100615.66
2024-01-24T21:58:32.232Z,100617.34
2024-01-24T22:01:35.118Z,100614.91
2024-01-24T22:04:38.123Z,100601.44
2024-01-24T22:07:44.400Z,100609.06
2024-01-24T22:10:47.236Z,100610.69
2024-01-24T22:13:50.695Z,100610.03
2024-01-24T22:16:53.742Z,100595.59
2024-01-24T22:19:56.343Z,100590.59
2024-01-24T22:22:59.024Z,100591.50
2024-01-24T22:26:01.760Z,100589.03
2024-01-24T22:29:05.636Z,100586.31
2024-01-24T22:32:10.103Z,100557.59
2024-01-24T22:35:13.066Z,100566.97
2024-01-24T22:38:16.723Z,100574.47
2024-01-24T22:41:22.020Z,100560.91
2024-01-24T22:44:25.068Z,100569.09
2024-01-24T22:47:28.716Z,100563.06
2024-01-24T22:50:31.996Z,100561.25
2024-01-24T22:53:35.344Z,100558.97
2024-01-24T22:56:37.909Z,100542.78
2024-01-24T22:59:40.571Z,100540.13
2024-01-24T23:02:43.135Z,100518.19
2024-01-24T23:05:45.745Z,100521.50
2024-01-24T23:08:48.373Z,100513.28
2024-01-24T23:11:50.951Z,100520.97
2024-01-24T23:14:53.727Z,100523.44
2024-01-24T23:17:56.391Z,100533.69
2024-01-24T23:21:00.509Z,100528.66
2024-01-24T23:24:03.285Z,100539.84
2024-01-24T23:27:06.040Z,100530.44
2024-01-24T23:30:09.212Z,100535.59
2024-01-24T23:33:12.339Z,100529.13
2024-01-24T23:36:15.161Z,100530.81
2024-01-24T23:39:18.318Z,100530.84
2024-01-24T23:42:21.050Z,100522.38
2024-01-24T23:45:24.246Z,100516.41
2024-01-24T23:48:27.713Z,100536.72
2024-01-24T23:51:33.660Z,100533.47
2024-01-24T23:54:38.420Z,100536.19
2024-01-24T23:57:41.087Z,100507.63
